createdAt,value
2022-08-18T00:00:06.473Z,42.97
2022-08-18T00:02:41.725Z,43.02
2022-08-18T00:05:13.143Z,43.42
2022-08-18T00:07:47.060Z,43.51
2022-08-18T00:10:18.706Z,43.42
2022-08-18T00:12:47.370Z,43.17
2022-08-18T00:15:17.206Z,43.11
2022-08-18T00:17:47.427Z,43.42
2022-08-18T00:20:18.545Z,44.09
2022-08-18T00:22:47.056Z,44.51
2022-08-18T00:25:17.529Z,44.19
2022-08-18T00:27:45.637Z,44.45
2022-08-18T00:30:16.968Z,44.52
2022-08-18T00:32:49.454Z,44.56
2022-08-18T00:35:21.015Z,43.94
2022-08-18T00:37:49.929Z,43.66
2022-08-18T00:40:20.522Z,43.80
2022-08-18T00:42:52.116Z,43.74
2022-08-18T00:45:24.020Z,43.87
2022-08-18T00:47:54.532Z,44.65
2022-08-18T00:50:27.335Z,44.52
2022-08-18T00:53:00.321Z,44.05
2022-08-18T00:55:30.954Z,43.23
2022-08-18T00:58:03.780Z,43.26
2022-08-18T01:00:33.270Z,43.05
2022-08-18T01:03:06.365Z,43.14
2022-08-18T01:05:40.934Z,43.12
2022-08-18T01:08:11.974Z,43.18
2022-08-18T01:10:40.708Z,43.59
2022-08-18T01:13:09.067Z,43.41
2022-08-18T01:15:37.961Z,43.15
2022-08-18T01:18:29.977Z,43.05
2022-08-18T01:21:19.671Z,43.98
2022-08-18T01:23:52.008Z,44.05
2022-08-18T01:26:21.891Z,44.18
2022-08-18T01:28:50.800Z,44.29
2022-08-18T01:31:53.244Z,44.34
2022-08-18T01:34:24.889Z,44.28
2022-08-18T01:36:54.244Z,44.29
2022-08-18T01:41:22.005Z,44.45
2022-08-18T01:42:12.782Z,44.28
2022-08-18T01:44:41.830Z,44.51
2022-08-18T01:47:10.865Z,45.03
2022-08-18T01:49:39.864Z,45.12
2022-08-18T01:52:08.248Z,45.01
2022-08-18T01:54:37.751Z,44.91
2022-08-18T01:57:06.213Z,44.78
2022-08-18T01:59:35.370Z,45.12
2022-08-18T02:02:03.680Z,44.88
2022-08-18T02:04:36.162Z,44.85
2022-08-18T02:07:07.756Z,44.94
2022-08-18T02:09:39.475Z,45.46
2022-08-18T02:12:09.203Z,45.46
2022-08-18T02:14:38.057Z,45.57
2022-08-18T02:17:08.949Z,45.44
2022-08-18T02:19:38.601Z,46.18
2022-08-18T02:22:08.093Z,45.98
2022-08-18T02:24:37.720Z,45.50
2022-08-18T02:27:06.799Z,45.91
2022-08-18T02:29:36.638Z,46.38
2022-08-18T02:32:05.513Z,46.18
2022-08-18T02:34:33.785Z,45.80
2022-08-18T02:37:02.139Z,46.23
2022-08-18T02:39:30.743Z,46.21
2022-08-18T02:42:00.316Z,46.04
2022-08-18T02:44:32.180Z,45.79
2022-08-18T02:47:00.500Z,45.93
2022-08-18T02:49:29.144Z,46.25
2022-08-18T02:51:57.322Z,46.17
2022-08-18T02:54:26.688Z,45.76
2022-08-18T02:59:27.955Z,46.02
2022-08-18T03:02:00.222Z,46.01
2022-08-18T03:04:32.617Z,46.19
2022-08-18T03:07:02.784Z,46.11
2022-08-18T03:09:31.671Z,46.13
2022-08-18T03:11:59.973Z,46.41
2022-08-18T03:14:29.672Z,46.07
2022-08-18T03:16:58.314Z,46.49
2022-08-18T03:19:28.784Z,47.56
2022-08-18T03:21:59.427Z,46.84
2022-08-18T03:24:32.244Z,46.81
2022-08-18T03:27:02.232Z,47.17
2022-08-18T03:29:32.942Z,48.06
2022-08-18T03:32:01.988Z,47.11
2022-08-18T03:34:30.296Z,47.59
2022-08-18T03:36:58.493Z,47.40
2022-08-18T03:39:28.090Z,46.87
2022-08-18T03:42:00.947Z,47.19
2022-08-18T03:44:33.404Z,47.04
2022-08-18T03:47:03.098Z,47.00
2022-08-18T03:49:32.457Z,47.11
2022-08-18T03:52:01.714Z,47.28
2022-08-18T03:54:32.296Z,47.30
2022-08-18T03:59:47.759Z,47.41
2022-08-18T04:02:15.854Z,47.74
2022-08-18T04:04:44.073Z,48.07
2022-08-18T04:07:14.648Z,47.67
2022-08-18T04:09:43.437Z,48.13
2022-08-18T04:12:16.184Z,47.39
2022-08-18T04:14:48.980Z,47.51
2022-08-18T04:17:20.434Z,47.92
2022-08-18T04:19:48.793Z,48.07
2022-08-18T04:22:18.565Z,47.65
2022-08-18T04:24:47.824Z,48.05
2022-08-18T04:27:18.968Z,47.66
2022-08-18T04:29:49.084Z,48.37
2022-08-18T04:32:17.328Z,48.71
2022-08-18T04:34:45.508Z,49.38
2022-08-18T04:37:15.535Z,49.63
2022-08-18T04:39:46.902Z,49.26
2022-08-18T04:42:15.756Z,48.22
2022-08-18T04:44:43.965Z,48.49
2022-08-18T04:47:13.619Z,48.44
2022-08-18T04:52:40.141Z,48.79
2022-08-18T04:55:10.403Z,48.53
2022-08-18T04:57:39.124Z,48.50
2022-08-18T05:00:09.044Z,48.54
2022-08-18T05:02:39.670Z,48.35
2022-08-18T05:05:08.998Z,48.53
2022-08-18T05:07:37.078Z,48.55
2022-08-18T05:10:06.885Z,48.45
2022-08-18T05:12:35.395Z,48.53
2022-08-18T05:15:03.514Z,48.85
2022-08-18T05:17:31.723Z,48.98
2022-08-18T05:20:04.622Z,49.07
2022-08-18T05:22:39.209Z,48.24
2022-08-18T05:27:54.199Z,48.95
2022-08-18T05:30:22.594Z,49.09
2022-08-18T05:32:50.959Z,48.38
2022-08-18T05:35:24.213Z,47.82
2022-08-18T05:38:18.229Z,48.14
2022-08-18T05:40:47.776Z,48.46
2022-08-18T05:43:16.873Z,48.16
2022-08-18T05:45:44.954Z,48.14
2022-08-18T05:48:13.068Z,48.51
2022-08-18T05:50:43.103Z,47.99
2022-08-18T05:53:14.587Z,47.98
2022-08-18T05:56:05.035Z,48.19
2022-08-18T05:58:35.406Z,47.95
2022-08-18T06:01:06.201Z,47.53
2022-08-18T06:03:45.481Z,47.41
2022-08-18T06:06:19.940Z,47.43
2022-08-18T06:08:54.265Z,47.10
2022-08-18T06:11:23.064Z,47.49
2022-08-18T06:13:59.634Z,47.04
2022-08-18T06:16:44.544Z,46.70
2022-08-18T06:19:33.589Z,46.71
2022-08-18T06:22:12.935Z,46.64
2022-08-18T06:24:47.241Z,45.99
2022-08-18T06:27:20.835Z,46.09
2022-08-18T06:29:58.922Z,45.94
2022-08-18T06:32:38.598Z,45.58
2022-08-18T06:35:15.527Z,45.16
2022-08-18T06:38:08.840Z,45.33
2022-08-18T06:40:37.458Z,44.72
2022-08-18T06:43:10.011Z,44.88
2022-08-18T06:45:42.230Z,44.98
2022-08-18T06:48:15.833Z,44.54
2022-08-18T06:50:50.235Z,44.53
2022-08-18T06:53:28.082Z,44.31
2022-08-18T06:55:56.764Z,44.41
2022-08-18T06:58:30.128Z,44.41
2022-08-18T07:01:04.152Z,44.25
2022-08-18T07:03:44.334Z,44.04
2022-08-18T07:06:26.508Z,44.26
2022-08-18T07:08:57.670Z,44.08
2022-08-18T07:11:28.113Z,44.20
2022-08-18T07:14:15.645Z,43.72
2022-08-18T07:16:58.387Z,43.78
2022-08-18T07:19:31.246Z,43.99
2022-08-18T07:22:03.768Z,43.82
2022-08-18T07:24:37.485Z,43.48
2022-08-18T07:27:08.459Z,43.85
2022-08-18T07:29:38.711Z,44.09
2022-08-18T07:32:21.153Z,43.45
2022-08-18T07:34:53.776Z,43.31
2022-08-18T07:37:28.541Z,43.23
2022-08-18T07:40:03.332Z,43.57
2022-08-18T07:42:54.310Z,43.18
2022-08-18T07:45:32.997Z,43.22
2022-08-18T07:48:27.344Z,43.76
2022-08-18T07:51:06.648Z,43.81
2022-08-18T07:53:55.927Z,43.76
2022-08-18T07:56:34.195Z,43.35
2022-08-18T07:59:06.473Z,42.86
2022-08-18T08:01:41.083Z,42.71
2022-08-18T08:04:25.723Z,42.51
2022-08-18T08:07:22.841Z,43.06
2022-08-18T08:09:53.675Z,42.71
2022-08-18T08:12:34.778Z,42.88
2022-08-18T08:15:10.179Z,42.73
2022-08-18T08:17:44.228Z,42.89
2022-08-18T08:20:21.297Z,42.67
2022-08-18T08:23:04.099Z,42.58
2022-08-18T08:25:47.244Z,41.82
2022-08-18T08:28:25.977Z,41.44
2022-08-18T08:31:33.399Z,41.94
2022-08-18T08:34:04.062Z,41.86
2022-08-18T08:36:37.522Z,41.04
2022-08-18T08:39:10.950Z,41.70
2022-08-18T08:41:43.356Z,41.41
2022-08-18T08:44:17.339Z,41.36
2022-08-18T08:46:47.613Z,40.87
2022-08-18T08:49:27.730Z,40.73
2022-08-18T08:51:59.116Z,40.87
2022-08-18T08:54:30.697Z,40.23
2022-08-18T08:57:01.313Z,40.20
2022-08-18T08:59:30.869Z,39.97
2022-08-18T09:02:15.971Z,39.96
2022-08-18T09:05:08.995Z,39.85
2022-08-18T09:07:51.371Z,39.01
2022-08-18T09:10:34.156Z,39.28
2022-08-18T09:13:14.906Z,39.49
2022-08-18T09:16:11.040Z,39.82
2022-08-18T09:18:54.024Z,39.20
2022-08-18T09:21:35.505Z,39.50
2022-08-18T09:24:11.386Z,39.42
2022-08-18T09:26:45.092Z,39.00
2022-08-18T09:29:23.684Z,38.93
2022-08-18T09:32:26.193Z,38.47
2022-08-18T09:35:05.521Z,38.23
2022-08-18T09:37:45.176Z,38.22
2022-08-18T09:41:01.022Z,37.76
2022-08-18T09:43:36.678Z,37.73
2022-08-18T09:46:06.057Z,37.99
2022-08-18T09:48:35.667Z,37.50
2022-08-18T09:51:35.954Z,37.06
2022-08-18T09:54:21.699Z,37.02
2022-08-18T09:57:19.181Z,37.17
2022-08-18T10:00:26.545Z,37.00
2022-08-18T10:03:12.541Z,37.44
2022-08-18T10:05:42.934Z,37.26
2022-08-18T10:08:42.733Z,37.45
2022-08-18T10:11:27.572Z,37.11
2022-08-18T10:14:07.917Z,37.17
2022-08-18T10:19:40.438Z,36.98
2022-08-18T10:22:09.941Z,37.61
2022-08-18T10:24:48.287Z,37.54
2022-08-18T10:27:50.809Z,37.55
2022-08-18T10:31:06.155Z,37.19
2022-08-18T10:34:00.170Z,36.88
2022-08-18T10:36:50.521Z,37.41
2022-08-18T10:39:21.514Z,36.76
2022-08-18T10:42:14.858Z,36.35
2022-08-18T10:44:45.135Z,36.58
2022-08-18T10:47:24.743Z,36.31
2022-08-18T10:49:53.762Z,36.45
2022-08-18T10:52:45.915Z,36.31
2022-08-18T10:55:26.405Z,36.02
2022-08-18T10:58:37.782Z,35.94
2022-08-18T11:01:19.373Z,35.84
2022-08-18T11:04:13.850Z,35.34
2022-08-18T11:06:53.833Z,35.50
2022-08-18T11:09:24.873Z,35.25
2022-08-18T11:18:10.678Z,33.70
2022-08-18T11:20:43.249Z,33.51
2022-08-18T11:23:15.645Z,32.58
2022-08-18T11:25:44.964Z,31.49
2022-08-18T11:28:18.655Z,31.73
2022-08-18T11:30:52.541Z,31.70
2022-08-18T11:36:10.283Z,31.35
2022-08-18T11:38:42.162Z,30.64
2022-08-18T11:41:19.113Z,30.22
2022-08-18T11:43:50.552Z,30.69
2022-08-18T11:46:30.390Z,30.39
2022-08-18T11:49:01.217Z,30.34
2022-08-18T11:51:32.401Z,30.50
2022-08-18T11:54:02.421Z,29.74
2022-08-18T11:59:54.978Z,29.64
2022-08-18T12:02:30.433Z,29.79
2022-08-18T12:05:08.391Z,29.36
2022-08-18T12:07:38.657Z,29.26
2022-08-18T12:10:28.618Z,29.19
2022-08-18T12:13:00.454Z,29.11
2022-08-18T12:15:46.286Z,28.60
2022-08-18T12:18:28.365Z,28.04
2022-08-18T12:20:58.721Z,28.10
2022-08-18T12:23:38.474Z,27.68
2022-08-18T12:26:27.434Z,27.66
2022-08-18T12:29:01.654Z,27.75
2022-08-18T12:31:42.714Z,27.16
2022-08-18T12:37:54.463Z,27.65
2022-08-18T12:40:06.116Z,28.00
2022-08-18T12:42:34.880Z,27.67
2022-08-18T12:45:03.840Z,27.88
2022-08-18T12:47:32.471Z,27.07
2022-08-18T12:50:08.964Z,27.00
2022-08-18T12:52:39.009Z,27.13
2022-08-18T12:55:21.444Z,26.91
2022-08-18T12:57:53.352Z,26.54
2022-08-18T13:00:29.021Z,26.31
2022-08-18T13:02:57.890Z,26.53
2022-08-18T13:05:29.847Z,25.66
2022-08-18T13:07:59.918Z,25.71
2022-08-18T13:10:42.822Z,25.13
2022-08-18T13:13:15.396Z,24.90
2022-08-18T13:15:55.239Z,24.91
2022-08-18T13:18:27.314Z,24.64
2022-08-18T13:20:59.181Z,24.72
2022-08-18T13:23:28.783Z,24.56
2022-08-18T13:26:01.520Z,24.62
2022-08-18T13:28:35.575Z,24.22
2022-08-18T13:31:05.724Z,23.67
2022-08-18T13:33:56.848Z,23.51
2022-08-18T13:36:25.330Z,23.46
2022-08-18T13:38:57.064Z,23.58
2022-08-18T13:43:56.407Z,22.92
2022-08-18T13:46:30.902Z,22.90
2022-08-18T13:49:03.038Z,23.02
2022-08-18T13:51:33.110Z,23.25
2022-08-18T13:56:51.333Z,22.76
2022-08-18T13:59:21.737Z,22.80
2022-08-18T14:01:53.003Z,22.77
2022-08-18T14:04:23.065Z,22.92
2022-08-18T14:06:59.941Z,23.10
2022-08-18T14:09:37.721Z,23.06
2022-08-18T14:12:15.334Z,23.20
2022-08-18T14:14:50.041Z,23.01
2022-08-18T14:17:22.337Z,23.55
2022-08-18T14:20:10.159Z,23.41
2022-08-18T14:22:57.978Z,23.72
2022-08-18T14:25:43.928Z,24.07
2022-08-18T14:28:12.222Z,24.18
2022-08-18T14:30:40.772Z,24.34
2022-08-18T14:33:21.729Z,24.64
2022-08-18T14:36:07.031Z,25.51
2022-08-18T14:38:39.882Z,25.32
2022-08-18T14:41:11.453Z,25.76
2022-08-18T14:44:04.560Z,26.46
2022-08-18T14:46:30.686Z,26.76
2022-08-18T14:49:04.118Z,27.16
2022-08-18T14:51:33.614Z,27.45
2022-08-18T14:54:05.373Z,27.22
2022-08-18T14:56:38.780Z,27.33
2022-08-18T14:59:08.302Z,27.81
2022-08-18T15:01:36.740Z,28.09
2022-08-18T15:04:18.690Z,28.20
2022-08-18T15:06:56.664Z,28.67
2022-08-18T15:09:27.522Z,28.38
2022-08-18T15:11:58.475Z,27.79
2022-08-18T15:14:33.140Z,27.12
2022-08-18T15:17:03.113Z,26.62
2022-08-18T15:20:00.034Z,26.95
2022-08-18T15:22:45.312Z,26.56
2022-08-18T15:25:31.946Z,26.04
2022-08-18T15:28:00.504Z,26.44
2022-08-18T15:30:30.548Z,26.45
2022-08-18T15:32:59.151Z,26.96
2022-08-18T15:35:32.385Z,27.28
2022-08-18T15:38:05.579Z,27.87
2022-08-18T15:40:41.296Z,27.54
2022-08-18T15:43:11.402Z,27.76
2022-08-18T15:45:57.793Z,27.87
2022-08-18T15:48:35.645Z,28.08
2022-08-18T15:51:11.927Z,28.25
2022-08-18T15:53:46.530Z,28.71
2022-08-18T15:56:21.154Z,29.34
2022-08-18T15:58:50.635Z,29.48
2022-08-18T16:01:30.260Z,29.82
2022-08-18T16:04:01.372Z,29.89
2022-08-18T16:06:32.342Z,30.29
2022-08-18T16:09:02.056Z,29.98
2022-08-18T16:11:34.183Z,29.03
2022-08-18T16:14:02.344Z,28.95
2022-08-18T16:16:36.050Z,29.30
2022-08-18T16:19:14.630Z,28.79
2022-08-18T16:21:42.788Z,29.32
2022-08-18T16:24:21.779Z,30.09
2022-08-18T16:26:52.580Z,30.08
2022-08-18T16:29:21.274Z,31.04
2022-08-18T16:31:52.499Z,30.85
2022-08-18T16:34:21.751Z,32.01
2022-08-18T16:36:54.695Z,32.09
2022-08-18T16:39:29.491Z,32.19
2022-08-18T16:42:04.024Z,32.27
2022-08-18T16:44:32.784Z,32.73
2022-08-18T16:47:01.691Z,32.67
2022-08-18T16:49:29.940Z,32.76
2022-08-18T16:51:58.056Z,33.67
2022-08-18T16:54:29.284Z,34.05
2022-08-18T16:57:02.007Z,35.55
2022-08-18T16:59:47.432Z,36.34
2022-08-18T17:02:32.928Z,37.10
2022-08-18T17:05:02.858Z,37.68
2022-08-18T17:07:31.886Z,37.84
2022-08-18T17:10:00.014Z,37.79
2022-08-18T17:12:29.831Z,38.07
2022-08-18T17:14:58.051Z,38.74
2022-08-18T17:17:26.149Z,38.94
2022-08-18T17:19:54.285Z,38.55
2022-08-18T17:22:25.275Z,39.09
2022-08-18T17:24:55.696Z,39.35
2022-08-18T17:27:37.290Z,39.47
2022-08-18T17:30:10.727Z,39.23
2022-08-18T17:32:42.913Z,39.39
2022-08-18T17:35:20.620Z,40.18
2022-08-18T17:38:02.496Z,40.46
2022-08-18T17:40:39.172Z,41.15
2022-08-18T17:43:11.183Z,41.52
2022-08-18T17:45:39.321Z,41.89
2022-08-18T17:48:11.165Z,42.19
2022-08-18T17:50:59.103Z,41.85
2022-08-18T17:53:27.262Z,40.83
2022-08-18T17:56:00.066Z,40.90
2022-08-18T17:58:34.323Z,42.26
2022-08-18T18:01:04.519Z,41.95
2022-08-18T18:03:34.141Z,42.18
2022-08-18T18:06:18.550Z,42.54
2022-08-18T18:08:52.039Z,43.61
2022-08-18T18:11:27.183Z,43.73
2022-08-18T18:13:56.937Z,43.34
2022-08-18T18:16:29.793Z,43.36
2022-08-18T18:19:02.802Z,43.77
2022-08-18T18:21:56.564Z,43.98
2022-08-18T18:24:24.055Z,43.42
2022-08-18T18:26:53.237Z,43.31
2022-08-18T18:29:29.123Z,43.87
2022-08-18T18:32:03.182Z,43.78
2022-08-18T18:34:38.038Z,44.15
2022-08-18T18:37:08.132Z,44.33
2022-08-18T18:39:37.851Z,44.60
2022-08-18T18:42:18.035Z,43.99
2022-08-18T18:44:55.971Z,44.27
2022-08-18T18:47:43.244Z,43.86
2022-08-18T18:50:18.560Z,44.31
2022-08-18T18:52:55.057Z,44.08
2022-08-18T18:55:25.849Z,44.19
2022-08-18T18:58:06.876Z,44.84
2022-08-18T19:00:41.957Z,44.87
2022-08-18T19:03:13.602Z,44.98
2022-08-18T19:05:45.942Z,45.21
2022-08-18T19:08:25.475Z,44.94
2022-08-18T19:10:58.399Z,44.97
2022-08-18T19:13:32.786Z,45.16
2022-08-18T19:16:23.273Z,44.79
2022-08-18T19:19:35.018Z,44.76
2022-08-18T19:22:04.976Z,44.95
2022-08-18T19:24:38.669Z,44.87
2022-08-18T19:27:08.658Z,45.38
2022-08-18T19:29:41.616Z,45.58
2022-08-18T19:32:16.804Z,45.78
2022-08-18T19:34:52.509Z,45.68
2022-08-18T19:37:32.587Z,45.78
2022-08-18T19:40:07.308Z,45.37
2022-08-18T19:42:41.095Z,46.26
2022-08-18T19:45:17.160Z,47.24
2022-08-18T19:47:51.065Z,47.19
2022-08-18T19:50:26.117Z,47.40
2022-08-18T19:53:33.579Z,46.84
2022-08-18T19:56:21.706Z,47.64
2022-08-18T19:59:18.602Z,47.82
2022-08-18T20:01:55.325Z,47.53
2022-08-18T20:04:36.848Z,48.01
2022-08-18T20:07:38.000Z,48.12
2022-08-18T20:10:28.511Z,48.27
2022-08-18T20:13:11.167Z,47.99
2022-08-18T20:16:00.424Z,48.29
2022-08-18T20:18:34.625Z,48.20
2022-08-18T20:21:39.855Z,48.14
2022-08-18T20:24:33.873Z,48.80
2022-08-18T20:27:32.814Z,48.55
2022-08-18T20:30:26.241Z,48.77
2022-08-18T20:33:15.413Z,48.83
2022-08-18T20:35:47.351Z,49.36
2022-08-18T20:38:21.650Z,49.27
2022-08-18T20:40:52.355Z,49.44
2022-08-18T20:43:27.510Z,48.80
2022-08-18T20:46:13.676Z,49.33
2022-08-18T20:49:06.026Z,49.25
2022-08-18T20:51:41.072Z,49.10
2022-08-18T20:54:19.548Z,48.81
2022-08-18T20:56:52.424Z,48.80
2022-08-18T20:59:24.048Z,49.43
2022-08-18T21:02:00.985Z,49.02
2022-08-18T21:04:46.902Z,49.17
2022-08-18T21:07:36.169Z,48.85
2022-08-18T21:10:12.273Z,49.37
2022-08-18T21:12:52.617Z,48.94
2022-08-18T21:15:23.892Z,48.80
2022-08-18T21:17:58.806Z,47.66
2022-08-18T21:20:28.186Z,47.62
2022-08-18T21:23:04.153Z,46.92
2022-08-18T21:25:33.764Z,47.23
2022-08-18T21:28:04.103Z,47.77
2022-08-18T21:30:32.829Z,48.87
2022-08-18T21:33:02.107Z,49.06
2022-08-18T21:35:32.812Z,49.38
2022-08-18T21:38:04.083Z,49.35
2022-08-18T21:40:39.430Z,49.50
2022-08-18T21:43:10.739Z,49.47
2022-08-18T21:45:47.582Z,49.99
2022-08-18T21:48:16.191Z,49.50
2022-08-18T21:50:51.476Z,49.68
2022-08-18T21:53:23.520Z,49.68
2022-08-18T21:55:55.074Z,49.13
2022-08-18T21:58:32.946Z,48.20
2022-08-18T22:01:21.994Z,47.29
2022-08-18T22:03:53.172Z,45.94
2022-08-18T22:06:28.470Z,45.59
2022-08-18T22:08:59.912Z,45.75
2022-08-18T22:12:00.902Z,45.44
2022-08-18T22:14:53.618Z,44.61
2022-08-18T22:17:33.653Z,44.65
2022-08-18T22:20:37.190Z,44.86
2022-08-18T22:23:28.018Z,44.50
2022-08-18T22:26:07.283Z,44.36
2022-08-18T22:28:36.841Z,44.25
2022-08-18T22:31:06.534Z,45.10
2022-08-18T22:33:34.643Z,45.13
2022-08-18T22:36:03.914Z,44.58
2022-08-18T22:38:32.298Z,44.88
2022-08-18T22:41:00.817Z,45.04
2022-08-18T22:43:29.184Z,45.13
2022-08-18T22:45:57.330Z,45.47
2022-08-18T22:48:27.225Z,45.17
2022-08-18T22:50:55.587Z,45.04
2022-08-18T22:53:23.797Z,45.61
2022-08-18T22:55:53.326Z,45.35
2022-08-18T22:58:28.164Z,45.27
2022-08-18T23:01:05.400Z,45.22
2022-08-18T23:03:41.871Z,45.43
2022-08-18T23:06:11.125Z,45.44
2022-08-18T23:08:55.421Z,45.99
2022-08-18T23:11:25.071Z,46.30
2022-08-18T23:13:54.057Z,47.22
2022-08-18T23:16:31.578Z,47.77
2022-08-18T23:19:03.021Z,49.55
2022-08-18T23:21:35.485Z,49.94
2022-08-18T23:24:05.696Z,50.13
2022-08-18T23:26:34.181Z,50.02
2022-08-18T23:29:02.960Z,50.10
2022-08-18T23:31:31.642Z,50.86
2022-08-18T23:34:02.980Z,50.02
2022-08-18T23:36:35.559Z,49.40
2022-08-18T23:39:04.226Z,48.85
2022-08-18T23:41:32.722Z,48.16
2022-08-18T23:44:01.821Z,48.11
2022-08-18T23:46:32.043Z,48.32
2022-08-18T23:49:04.427Z,49.39
2022-08-18T23:51:34.835Z,50.25
2022-08-18T23:54:07.457Z,51.14
2022-08-18T23:56:38.153Z,51.25
2022-08-18T23:59:07.713Z,50.95
